createdAt,value
2023-02-27T00:00:17.511Z,74.84
2023-02-27T00:02:51.650Z,75.20
2023-02-27T00:05:22.570Z,75.02
2023-02-27T00:07:52.254Z,75.76
2023-02-27T00:10:21.770Z,75.72
2023-02-27T00:12:50.439Z,75.76
2023-02-27T00:15:22.681Z,75.73
2023-02-27T00:17:51.699Z,76.20
2023-02-27T00:20:21.401Z,76.22
2023-02-27T00:22:50.045Z,76.08
2023-02-27T00:25:19.000Z,75.34
2023-02-27T00:27:47.695Z,74.81
2023-02-27T00:30:17.339Z,74.98
2023-02-27T00:32:47.432Z,75.46
2023-02-27T00:35:16.178Z,75.64
2023-02-27T00:37:44.983Z,75.55
2023-02-27T00:40:15.618Z,74.73
2023-02-27T00:42:46.312Z,74.53
2023-02-27T00:45:14.969Z,74.85
2023-02-27T00:47:43.777Z,74.56
2023-02-27T00:50:14.953Z,74.47
2023-02-27T00:52:43.776Z,74.84
2023-02-27T00:55:12.835Z,74.74
2023-02-27T00:57:42.039Z,74.65
2023-02-27T01:00:13.895Z,74.85
2023-02-27T01:02:42.705Z,75.02
2023-02-27T01:05:13.470Z,74.89
2023-02-27T01:07:42.198Z,74.92
2023-02-27T01:10:14.344Z,75.02
2023-02-27T01:12:43.240Z,74.67
2023-02-27T01:15:13.476Z,74.81
2023-02-27T01:17:43.798Z,74.57
2023-02-27T01:20:15.160Z,74.63
2023-02-27T01:22:43.878Z,73.82
2023-02-27T01:25:14.829Z,73.26
2023-02-27T01:27:44.852Z,73.23
2023-02-27T01:30:15.828Z,73.80
2023-02-27T01:32:46.630Z,73.99
2023-02-27T01:35:16.804Z,73.99
2023-02-27T01:37:45.804Z,74.52
2023-02-27T01:40:16.042Z,74.80
2023-02-27T01:42:46.654Z,74.99
2023-02-27T01:45:36.047Z,75.32
2023-02-27T01:48:17.091Z,75.43
2023-02-27T01:50:53.622Z,75.76
2023-02-27T01:53:25.953Z,75.79
2023-02-27T01:56:02.027Z,75.99
2023-02-27T01:58:32.855Z,76.16
2023-02-27T02:01:01.948Z,76.30
2023-02-27T02:03:41.061Z,76.33
2023-02-27T02:06:13.630Z,76.32
2023-02-27T02:08:47.750Z,76.81
2023-02-27T02:11:19.256Z,77.13
2023-02-27T02:13:58.713Z,77.41
2023-02-27T02:16:50.681Z,77.59
2023-02-27T02:20:14.637Z,77.43
2023-02-27T02:23:51.749Z,77.16
2023-02-27T02:26:46.499Z,77.50
2023-02-27T02:30:06.721Z,77.41
2023-02-27T02:33:49.872Z,77.57
2023-02-27T02:37:03.182Z,77.55
2023-02-27T02:40:18.214Z,77.64
2023-02-27T02:42:55.890Z,77.77
2023-02-27T02:45:32.489Z,77.97
2023-02-27T02:48:20.827Z,78.46
2023-02-27T02:50:58.556Z,78.47
2023-02-27T02:53:38.075Z,78.70
2023-02-27T02:56:20.939Z,78.63
2023-02-27T02:58:59.838Z,78.64
2023-02-27T03:01:37.396Z,78.70
2023-02-27T03:04:15.160Z,78.88
2023-02-27T03:06:48.940Z,78.86
2023-02-27T03:09:25.231Z,78.89
2023-02-27T03:12:00.927Z,78.92
2023-02-27T03:14:36.854Z,78.69
2023-02-27T03:17:16.965Z,78.70
2023-02-27T03:19:55.180Z,78.55
2023-02-27T03:22:31.013Z,78.37
2023-02-27T03:25:04.139Z,78.13
2023-02-27T03:27:42.124Z,77.58
2023-02-27T03:30:17.199Z,77.74
2023-02-27T03:32:56.956Z,77.77
2023-02-27T03:35:33.434Z,77.58
2023-02-27T03:38:12.249Z,77.48
2023-02-27T03:40:50.758Z,77.82
2023-02-27T03:43:37.051Z,77.52
2023-02-27T03:46:13.836Z,77.56
2023-02-27T03:48:44.865Z,77.49
2023-02-27T03:51:14.971Z,77.63
2023-02-27T03:53:51.852Z,77.98
2023-02-27T03:56:32.083Z,77.81
2023-02-27T03:59:05.015Z,77.74
2023-02-27T04:01:35.011Z,77.87
2023-02-27T04:04:09.463Z,77.72
2023-02-27T04:07:20.449Z,77.78
2023-02-27T04:10:17.168Z,77.78
2023-02-27T04:13:26.759Z,78.19
2023-02-27T04:16:46.005Z,78.43
2023-02-27T04:19:32.804Z,78.43
2023-02-27T04:22:18.979Z,78.48
2023-02-27T04:25:02.171Z,78.48
2023-02-27T04:27:42.799Z,78.64
2023-02-27T04:30:29.139Z,78.66
2023-02-27T04:33:10.552Z,78.73
2023-02-27T04:35:49.173Z,78.59
2023-02-27T04:38:27.370Z,78.33
2023-02-27T04:41:01.770Z,78.39
2023-02-27T04:43:34.036Z,78.40
2023-02-27T04:46:06.818Z,78.36
2023-02-27T04:48:45.351Z,78.40
2023-02-27T04:51:18.147Z,78.39
2023-02-27T04:53:55.553Z,78.29
2023-02-27T04:56:32.112Z,78.28
2023-02-27T04:59:07.525Z,78.33
2023-02-27T05:01:42.086Z,78.25
2023-02-27T05:04:17.364Z,78.26
2023-02-27T05:06:47.786Z,78.36
2023-02-27T05:09:25.465Z,78.40
2023-02-27T05:12:00.040Z,78.44
2023-02-27T05:14:35.859Z,78.41
2023-02-27T05:17:10.392Z,78.39
2023-02-27T05:19:43.682Z,78.41
2023-02-27T05:22:25.810Z,78.45
2023-02-27T05:25:06.362Z,78.61
2023-02-27T05:27:43.557Z,78.64
2023-02-27T05:30:22.830Z,78.75
2023-02-27T05:32:57.668Z,78.84
2023-02-27T05:35:34.077Z,78.76
2023-02-27T05:38:11.301Z,78.74
2023-02-27T05:40:46.465Z,78.83
2023-02-27T05:43:22.426Z,79.06
2023-02-27T05:45:57.464Z,79.15
2023-02-27T05:48:32.063Z,79.09
2023-02-27T05:51:04.689Z,79.12
2023-02-27T05:53:41.612Z,79.29
2023-02-27T05:56:15.032Z,79.10
2023-02-27T05:58:51.158Z,79.14
2023-02-27T06:01:19.988Z,79.15
2023-02-27T06:03:48.904Z,79.06
2023-02-27T06:06:21.069Z,78.92
2023-02-27T06:08:49.951Z,79.00
2023-02-27T06:11:19.082Z,78.98
2023-02-27T06:13:47.766Z,79.01
2023-02-27T06:16:18.221Z,78.98
2023-02-27T06:18:47.066Z,78.97
2023-02-27T06:21:15.800Z,79.20
2023-02-27T06:23:46.116Z,79.16
2023-02-27T06:26:16.306Z,79.39
2023-02-27T06:28:44.874Z,79.54
2023-02-27T06:31:13.547Z,79.46
2023-02-27T06:33:42.325Z,79.44
2023-02-27T06:36:11.060Z,79.31
2023-02-27T06:38:40.459Z,79.39
2023-02-27T06:41:10.613Z,78.92
2023-02-27T06:43:39.533Z,78.49
2023-02-27T06:46:08.395Z,78.41
2023-02-27T06:48:37.266Z,78.30
2023-02-27T06:51:06.202Z,78.43
2023-02-27T06:53:34.848Z,78.30
2023-02-27T06:56:03.590Z,78.61
2023-02-27T06:58:33.749Z,78.55
2023-02-27T07:01:02.616Z,78.58
2023-02-27T07:03:31.304Z,78.70
2023-02-27T07:06:02.500Z,78.89
2023-02-27T07:08:31.451Z,78.54
2023-02-27T07:11:00.160Z,78.29
2023-02-27T07:13:29.137Z,77.94
2023-02-27T07:15:59.469Z,77.45
2023-02-27T07:18:28.914Z,77.81
2023-02-27T07:20:57.662Z,77.64
2023-02-27T07:23:26.502Z,77.58
2023-02-27T07:25:55.116Z,77.56
2023-02-27T07:28:24.010Z,77.57
2023-02-27T07:30:56.283Z,77.13
2023-02-27T07:33:26.341Z,77.04
2023-02-27T07:35:55.053Z,76.86
2023-02-27T07:38:24.189Z,77.08
2023-02-27T07:40:54.602Z,77.29
2023-02-27T07:43:23.335Z,77.34
2023-02-27T07:45:52.016Z,77.29
2023-02-27T07:48:20.993Z,77.31
2023-02-27T07:50:51.099Z,77.43
2023-02-27T07:53:19.685Z,77.51
2023-02-27T07:55:48.569Z,77.58
2023-02-27T07:58:17.351Z,77.59
2023-02-27T08:00:46.186Z,77.56
2023-02-27T08:03:15.037Z,77.38
2023-02-27T08:05:43.723Z,77.80
2023-02-27T08:08:13.739Z,77.63
2023-02-27T08:10:42.390Z,77.18
2023-02-27T08:13:11.087Z,77.20
2023-02-27T08:15:39.790Z,77.10
2023-02-27T08:18:08.964Z,76.80
2023-02-27T08:20:37.871Z,76.48
2023-02-27T08:23:07.022Z,76.36
2023-02-27T08:25:37.320Z,76.07
2023-02-27T08:28:05.959Z,76.04
2023-02-27T08:30:34.671Z,75.99
2023-02-27T08:33:03.421Z,75.74
2023-02-27T08:35:32.139Z,75.89
2023-02-27T08:38:01.061Z,75.78
2023-02-27T08:40:29.812Z,75.55
2023-02-27T08:42:59.903Z,75.04
2023-02-27T08:45:28.845Z,75.22
2023-02-27T08:47:57.524Z,75.00
2023-02-27T08:50:26.271Z,74.50
2023-02-27T08:52:54.874Z,74.22
2023-02-27T08:55:23.612Z,74.01
2023-02-27T08:57:52.392Z,73.67
2023-02-27T09:00:25.188Z,73.54
2023-02-27T09:02:54.189Z,73.15
2023-02-27T09:05:23.455Z,72.97
2023-02-27T09:07:52.120Z,72.57
2023-02-27T09:10:21.025Z,72.77
2023-02-27T09:12:50.365Z,72.62
2023-02-27T09:15:19.116Z,72.55
2023-02-27T09:17:49.951Z,72.55
2023-02-27T09:20:19.394Z,72.47
2023-02-27T09:22:48.150Z,72.21
2023-02-27T09:25:17.132Z,71.76
2023-02-27T09:27:45.830Z,72.06
2023-02-27T09:30:15.094Z,72.15
2023-02-27T09:32:43.797Z,71.77
2023-02-27T09:35:15.893Z,71.64
2023-02-27T09:37:45.267Z,71.60
2023-02-27T09:40:22.289Z,71.33
2023-02-27T09:42:52.186Z,71.40
2023-02-27T09:45:26.122Z,71.47
2023-02-27T09:48:00.738Z,71.50
2023-02-27T09:50:42.072Z,71.06
2023-02-27T09:53:18.493Z,71.07
2023-02-27T09:55:48.183Z,70.98
2023-02-27T09:58:38.719Z,70.71
2023-02-27T10:01:17.209Z,70.51
2023-02-27T10:04:31.948Z,70.38
2023-02-27T10:07:13.655Z,70.58
2023-02-27T10:09:58.466Z,70.44
2023-02-27T10:12:56.580Z,70.51
2023-02-27T10:15:30.539Z,70.53
2023-02-27T10:18:20.182Z,70.37
2023-02-27T10:20:59.182Z,70.44
2023-02-27T10:23:40.595Z,70.30
2023-02-27T10:26:19.423Z,70.22
2023-02-27T10:28:48.278Z,70.28
2023-02-27T10:31:23.812Z,70.14
2023-02-27T10:33:53.324Z,70.10
2023-02-27T10:36:32.985Z,69.93
2023-02-27T10:39:08.582Z,69.67
2023-02-27T10:41:40.041Z,69.28
2023-02-27T10:44:09.814Z,69.25
2023-02-27T10:46:39.195Z,69.45
2023-02-27T10:49:19.038Z,69.11
2023-02-27T10:52:04.848Z,69.05
2023-02-27T10:54:35.158Z,69.11
2023-02-27T10:57:07.936Z,69.26
2023-02-27T10:59:40.713Z,69.15
2023-02-27T11:02:26.209Z,68.79
2023-02-27T11:04:58.085Z,68.96
2023-02-27T11:07:38.063Z,68.95
2023-02-27T11:10:22.167Z,68.83
2023-02-27T11:13:03.531Z,68.84
2023-02-27T11:15:34.429Z,68.68
2023-02-27T11:18:29.273Z,68.60
2023-02-27T11:21:20.159Z,68.42
2023-02-27T11:24:01.264Z,68.40
2023-02-27T11:26:34.858Z,68.21
2023-02-27T11:29:17.996Z,68.28
2023-02-27T11:31:53.274Z,68.67
2023-02-27T11:34:28.013Z,68.29
2023-02-27T11:37:01.752Z,68.29
2023-02-27T11:39:39.042Z,68.10
2023-02-27T11:42:20.060Z,67.89
2023-02-27T11:44:57.770Z,67.49
2023-02-27T11:47:33.220Z,67.45
2023-02-27T11:50:40.955Z,67.29
2023-02-27T11:53:40.467Z,67.42
2023-02-27T11:56:17.911Z,67.40
2023-02-27T11:59:00.005Z,67.57
2023-02-27T12:01:39.986Z,67.14
2023-02-27T12:04:19.106Z,66.96
2023-02-27T12:06:55.652Z,66.88
2023-02-27T12:09:46.847Z,66.80
2023-02-27T12:12:25.115Z,66.85
2023-02-27T12:15:19.290Z,66.61
2023-02-27T12:17:55.939Z,66.42
2023-02-27T12:20:35.351Z,66.33
2023-02-27T12:23:15.878Z,66.32
2023-02-27T12:25:52.764Z,66.27
2023-02-27T12:28:51.296Z,65.62
2023-02-27T12:31:47.049Z,65.73
2023-02-27T12:34:29.628Z,65.63
2023-02-27T12:37:04.910Z,65.52
2023-02-27T12:39:36.244Z,65.58
2023-02-27T12:42:28.349Z,65.38
2023-02-27T12:45:50.172Z,65.34
2023-02-27T12:48:43.598Z,65.84
2023-02-27T12:51:32.759Z,66.01
2023-02-27T12:54:18.555Z,65.89
2023-02-27T12:57:03.529Z,66.12
2023-02-27T12:59:53.760Z,66.05
2023-02-27T13:02:55.349Z,65.78
2023-02-27T13:05:39.580Z,65.75
2023-02-27T13:08:44.506Z,65.86
2023-02-27T13:11:26.933Z,65.96
2023-02-27T13:14:01.983Z,65.93
2023-02-27T13:16:37.643Z,65.62
2023-02-27T13:19:15.493Z,65.81
2023-02-27T13:21:55.315Z,65.76
2023-02-27T13:24:30.151Z,65.58
2023-02-27T13:27:04.980Z,65.23
2023-02-27T13:29:40.934Z,65.24
2023-02-27T13:32:36.550Z,65.63
2023-02-27T13:35:28.107Z,65.42
2023-02-27T13:38:02.426Z,65.32
2023-02-27T13:40:42.817Z,65.26
2023-02-27T13:43:43.398Z,65.50
2023-02-27T13:46:25.672Z,65.03
2023-02-27T13:48:54.962Z,65.15
2023-02-27T13:51:47.898Z,65.19
2023-02-27T13:54:40.656Z,65.12
2023-02-27T13:57:22.571Z,65.51
2023-02-27T14:00:05.050Z,65.25
2023-02-27T14:03:00.754Z,65.75
2023-02-27T14:05:39.210Z,65.71
2023-02-27T14:08:16.559Z,65.94
2023-02-27T14:11:00.004Z,65.87
2023-02-27T14:14:05.595Z,66.35
2023-02-27T14:16:57.791Z,66.76
2023-02-27T14:19:56.946Z,66.65
2023-02-27T14:23:11.529Z,67.11
2023-02-27T14:25:46.288Z,67.51
2023-02-27T14:28:27.313Z,67.68
2023-02-27T14:31:02.333Z,67.81
2023-02-27T14:33:41.473Z,67.97
2023-02-27T14:36:18.658Z,68.26
2023-02-27T14:38:48.551Z,68.46
2023-02-27T14:41:38.273Z,68.64
2023-02-27T14:44:21.124Z,68.95
2023-02-27T14:46:52.184Z,69.13
2023-02-27T14:49:24.753Z,69.34
2023-02-27T14:51:54.891Z,69.54
2023-02-27T14:54:26.784Z,69.72
2023-02-27T14:56:58.158Z,69.98
2023-02-27T14:59:31.292Z,70.17
2023-02-27T15:02:04.398Z,70.27
2023-02-27T15:04:34.666Z,70.24
2023-02-27T15:07:04.152Z,70.60
2023-02-27T15:09:42.901Z,70.80
2023-02-27T15:12:19.058Z,70.63
2023-02-27T15:14:53.669Z,71.14
2023-02-27T15:17:26.074Z,71.02
2023-02-27T15:19:57.295Z,71.11
2023-02-27T15:22:38.868Z,71.06
2023-02-27T15:25:27.808Z,71.01
2023-02-27T15:27:58.949Z,71.09
2023-02-27T15:30:29.291Z,71.15
2023-02-27T15:32:58.927Z,71.29
2023-02-27T15:35:37.670Z,71.46
2023-02-27T15:38:07.645Z,71.46
2023-02-27T15:40:37.458Z,71.43
2023-02-27T15:43:07.001Z,71.70
2023-02-27T15:45:38.407Z,71.93
2023-02-27T15:48:08.453Z,71.93
2023-02-27T15:50:42.602Z,72.15
2023-02-27T15:53:17.206Z,72.24
2023-02-27T15:55:51.092Z,72.25
2023-02-27T15:58:25.906Z,72.07
2023-02-27T16:01:02.098Z,71.99
2023-02-27T16:03:35.413Z,72.02
2023-02-27T16:06:11.319Z,72.18
2023-02-27T16:08:46.840Z,72.03
2023-02-27T16:11:20.773Z,72.08
2023-02-27T16:13:50.321Z,71.91
2023-02-27T16:16:35.433Z,71.97
2023-02-27T16:19:26.381Z,71.68
2023-02-27T16:22:07.793Z,71.53
2023-02-27T16:24:36.759Z,71.33
2023-02-27T16:27:06.352Z,71.23
2023-02-27T16:29:44.328Z,71.07
2023-02-27T16:32:26.020Z,71.13
2023-02-27T16:35:07.312Z,71.07
2023-02-27T16:37:39.753Z,71.04
2023-02-27T16:40:17.241Z,71.20
2023-02-27T16:42:47.992Z,70.99
2023-02-27T16:45:20.289Z,71.01
2023-02-27T16:47:53.949Z,71.11
2023-02-27T16:50:35.212Z,71.26
2023-02-27T16:53:04.940Z,71.26
2023-02-27T16:55:35.473Z,71.05
2023-02-27T16:58:08.057Z,70.99
2023-02-27T17:00:37.707Z,71.18
2023-02-27T17:03:07.865Z,71.05
2023-02-27T17:05:38.059Z,71.05
2023-02-27T17:08:07.196Z,71.08
2023-02-27T17:10:36.063Z,71.05
2023-02-27T17:13:04.769Z,71.09
2023-02-27T17:15:33.670Z,71.17
2023-02-27T17:18:03.494Z,71.12
2023-02-27T17:20:33.539Z,71.02
2023-02-27T17:23:02.282Z,70.70
2023-02-27T17:25:31.121Z,70.74
2023-02-27T17:27:59.850Z,70.63
2023-02-27T17:30:28.962Z,70.31
2023-02-27T17:32:59.751Z,70.15
2023-02-27T17:35:30.298Z,70.76
2023-02-27T17:38:00.841Z,70.62
2023-02-27T17:40:29.571Z,70.70
2023-02-27T17:42:58.488Z,70.66
2023-02-27T17:45:27.136Z,70.76
2023-02-27T17:47:55.904Z,70.69
2023-02-27T17:50:24.644Z,70.73
2023-02-27T17:52:53.294Z,70.97
2023-02-27T17:55:23.317Z,70.91
2023-02-27T17:57:52.047Z,71.08
2023-02-27T18:00:21.769Z,71.21
2023-02-27T18:02:50.900Z,71.14
2023-02-27T18:05:19.899Z,71.45
2023-02-27T18:07:48.873Z,71.75
2023-02-27T18:10:17.565Z,72.05
2023-02-27T18:12:48.149Z,72.21
2023-02-27T18:15:17.011Z,72.54
2023-02-27T18:17:45.836Z,72.54
2023-02-27T18:20:14.805Z,72.79
2023-02-27T18:22:43.501Z,72.88
2023-02-27T18:25:12.126Z,72.88
2023-02-27T18:27:41.472Z,72.77
2023-02-27T18:30:13.545Z,72.86
2023-02-27T18:32:42.618Z,73.21
2023-02-27T18:35:11.532Z,73.34
2023-02-27T18:37:41.066Z,73.73
2023-02-27T18:40:12.598Z,73.92
2023-02-27T18:42:41.588Z,74.35
2023-02-27T18:45:13.242Z,74.62
2023-02-27T18:47:42.024Z,74.81
2023-02-27T18:50:12.489Z,74.73
2023-02-27T18:52:41.457Z,75.04
2023-02-27T18:55:11.295Z,74.95
2023-02-27T18:57:39.963Z,74.77
2023-02-27T19:00:12.444Z,75.08
2023-02-27T19:02:43.319Z,75.03
2023-02-27T19:05:14.761Z,75.16
2023-02-27T19:07:43.744Z,75.25
2023-02-27T19:10:13.585Z,75.45
2023-02-27T19:12:42.409Z,75.74
2023-02-27T19:15:13.293Z,75.95
2023-02-27T19:17:41.967Z,76.12
2023-02-27T19:20:16.597Z,76.19
2023-02-27T19:22:45.586Z,76.53
2023-02-27T19:25:14.524Z,76.59
2023-02-27T19:27:44.840Z,76.54
2023-02-27T19:30:16.170Z,76.58
2023-02-27T19:32:44.835Z,76.87
2023-02-27T19:35:15.307Z,77.00
2023-02-27T19:37:46.810Z,77.05
2023-02-27T19:40:16.835Z,77.19
2023-02-27T19:42:45.818Z,77.69
2023-02-27T19:45:15.873Z,77.86
2023-02-27T19:47:45.364Z,78.02
2023-02-27T19:50:14.650Z,78.43
2023-02-27T19:52:43.400Z,78.61
2023-02-27T19:55:13.667Z,79.10
2023-02-27T19:57:42.561Z,79.44
2023-02-27T20:00:14.197Z,79.80
2023-02-27T20:02:45.284Z,80.46
2023-02-27T20:05:16.089Z,80.73
2023-02-27T20:07:47.484Z,80.83
2023-02-27T20:10:20.420Z,81.15
2023-02-27T20:12:54.459Z,81.34
2023-02-27T20:15:24.317Z,81.41
2023-02-27T20:17:59.913Z,81.78
2023-02-27T20:20:33.478Z,81.88
2023-02-27T20:23:05.518Z,81.92
2023-02-27T20:25:35.376Z,81.99
2023-02-27T20:28:08.546Z,82.08
2023-02-27T20:30:51.537Z,82.32
2023-02-27T20:33:43.379Z,82.38
2023-02-27T20:36:16.042Z,82.49
2023-02-27T20:38:46.782Z,82.68
2023-02-27T20:41:18.481Z,82.89
2023-02-27T20:43:47.697Z,82.88
2023-02-27T20:46:19.429Z,83.12
2023-02-27T20:48:52.426Z,83.20
2023-02-27T20:51:24.313Z,83.39
2023-02-27T20:53:56.181Z,83.75
2023-02-27T20:56:29.587Z,83.79
2023-02-27T20:58:59.789Z,83.77
2023-02-27T21:01:31.742Z,83.84
2023-02-27T21:04:03.932Z,84.14
2023-02-27T21:06:34.938Z,84.31
2023-02-27T21:09:08.370Z,84.47
2023-02-27T21:11:37.094Z,84.36
2023-02-27T21:14:09.222Z,84.51
2023-02-27T21:16:39.692Z,84.89
2023-02-27T21:19:13.755Z,85.27
2023-02-27T21:21:42.530Z,85.29
2023-02-27T21:24:11.836Z,85.55
2023-02-27T21:26:40.916Z,85.69
2023-02-27T21:29:12.930Z,86.06
2023-02-27T21:31:45.512Z,86.60
2023-02-27T21:34:18.606Z,86.78
2023-02-27T21:36:48.150Z,86.93
2023-02-27T21:39:20.223Z,87.10
2023-02-27T21:41:49.436Z,87.01
2023-02-27T21:44:21.996Z,87.42
2023-02-27T21:46:50.922Z,87.31
2023-02-27T21:49:23.891Z,87.38
2023-02-27T21:51:54.074Z,87.52
2023-02-27T21:54:23.537Z,87.40
2023-02-27T21:56:52.681Z,87.50
2023-02-27T21:59:22.595Z,87.53
2023-02-27T22:01:51.603Z,87.57
2023-02-27T22:04:23.583Z,87.81
2023-02-27T22:06:54.710Z,87.74
2023-02-27T22:09:23.424Z,87.93
2023-02-27T22:11:52.102Z,87.98
2023-02-27T22:14:20.854Z,87.99
2023-02-27T22:16:49.900Z,88.28
2023-02-27T22:19:22.098Z,88.19
2023-02-27T22:21:53.678Z,88.48
2023-02-27T22:24:23.935Z,88.35
2023-02-27T22:26:52.575Z,88.46
2023-02-27T22:29:21.223Z,88.42
2023-02-27T22:31:50.074Z,88.58
2023-02-27T22:34:21.772Z,88.63
2023-02-27T22:36:54.861Z,88.49
2023-02-27T22:39:23.702Z,88.55
2023-02-27T22:41:52.448Z,88.66
2023-02-27T22:44:21.059Z,88.62
2023-02-27T22:46:51.319Z,88.55
2023-02-27T22:49:23.517Z,88.71
2023-02-27T22:51:54.264Z,88.66
2023-02-27T22:54:24.250Z,88.61
2023-02-27T22:56:56.923Z,88.65
2023-02-27T22:59:27.634Z,88.70
2023-02-27T23:01:56.560Z,88.70
2023-02-27T23:04:25.241Z,88.79
2023-02-27T23:06:56.521Z,88.73
2023-02-27T23:09:27.424Z,88.89
2023-02-27T23:11:56.632Z,88.82
2023-02-27T23:14:25.662Z,88.91
2023-02-27T23:16:54.261Z,89.01
2023-02-27T23:19:24.032Z,89.01
2023-02-27T23:21:54.108Z,89.03
2023-02-27T23:24:22.858Z,89.12
2023-02-27T23:26:53.573Z,89.12
2023-02-27T23:29:22.291Z,89.17
2023-02-27T23:31:51.153Z,89.23
2023-02-27T23:34:19.971Z,89.14
2023-02-27T23:36:48.624Z,88.99
2023-02-27T23:39:19.530Z,89.17
2023-02-27T23:41:48.195Z,89.24
2023-02-27T23:44:16.935Z,89.13
2023-02-27T23:46:45.544Z,89.07
2023-02-27T23:49:14.375Z,89.10
2023-02-27T23:51:43.001Z,89.17
2023-02-27T23:54:11.705Z,88.67
2023-02-27T23:56:41.781Z,89.00
2023-02-27T23:59:10.459Z,88.67
